Airfield :
LOGIN :

Register | Disclaimer

   EN    FR    IT 

 










Legend :    VFR   Marginal VFR   IFR   Intensive IFR   Very Intensive IFR
Visi :
Ceiling :
>= 8 km
>= 3000ft
5 to 8 km
1000 to 3000 ft
1500m to 5 km
500 to 1000 ft
800 to 1500m
200 to 500 ft
< 800m
< 200 ft
Symbols :   Thunderstorms  Fog  Heavy snow  Heavy precipitations  Wind > 20 kt
SIGMETs :     Misc.  Thunderstorms  Icing  Turbulence  Mountain Waves  Volcanic Ashes







- Airport Elevation : 63 ft
- IATA code : BZM


EHWO - Woensdrecht Airbase

CURRENT METAR :
  • 220725Z AUTO 24010KT 190V260 9999 FEW190 OVC330 20/13 Q1022 BLU 24010KT CAVOK

EXPIRED METARs :
  • 220656Z AUTO 24010KT 210V270 9999 OVC330 19/13 Q1022 BLU 24010KT CAVOK
  • 220625Z AUTO 24008KT 9999 BKN330 BKN390 18/13 Q1022 BLU 23007KT CAVOK
  • 220555Z AUTO 23007KT 9999 BKN260 BKN400 17/12 Q1022 BLU 23007KT CAVOK
  • 220533Z AUTO 23007KT 9999 SCT230 SCT280 OVC340 17/12 Q1022 BLU 23007KT CAVOK
  • 220525Z AUTO 23006KT 190V280 9999 OVC220 17/12 Q1022 BLU
  • 220455Z AUTO 22005KT 210V320 9999 BKN240 OVC300 16/13 Q1022 BLU
  • 220430Z AUTO VRB02KT 9999 OVC200 13/12 Q1022 BLU

TAF TAF EHWO
Valid from the 22 at 05:00 until the 22 at 17:00 UTC


220431Z 2205/2217 VRB02KT CAVOK
BECMG 2205/2207 23007KT
PROB40
TEMPO 2209/2213 25010G22KT
No reported NOTAMs for that airfield.



MET'MAP, your aeronautical weather chart ! - Copyright ORBIFLY December 2007 - Disclaimer

ORBIFLY MET'MAP TEAM :

Programming & Development : Alexandra Zaïnal
Concept & Development : Baudouin d'Aumeries
Co-Development & Prog : Marc-Olivier Méhu
Technical & hardware support : Manuel Goepfert

Contact : metmap@orbifly.com




SOURCES & CREDITS :

   NOAA